Time;durP1;ratioP1;P1;durP2;ratioP2;P2;SDS_P1;SDS_P2;PMS_P1;PMS_P2;Temp;Humidity;BMP_temperature;BMP_pressure;BME280_temperature;BME280_humidity;BME280_pressure;Samples;Min_cycle;Max_cycle;Signal;HPM_P1;HPM_P2
2022/05/01 00:01:42;;;;;;;17.67;12.52;;;;;;;;;;4769448;30;20138;-62
2022/05/01 00:04:09;;;;;;;14.93;11.88;;;8.30;99.90;;;;;;4769614;30;20079;-62
2022/05/01 00:06:35;;;;;;;15.98;12.05;;;8.40;99.90;;;;;;4753744;30;20064;-62
2022/05/01 00:09:02;;;;;;;20.85;12.50;;;8.10;99.90;;;;;;4753693;30;20434;-62
2022/05/01 00:11:30;;;;;;;16.73;12.50;;;;;;;;;;4769557;30;20417;-63
2022/05/01 00:13:57;;;;;;;22.42;12.73;;;7.90;99.90;;;;;;4753700;30;20625;-62
2022/05/01 00:16:23;;;;;;;16.13;12.02;;;;;;;;;;4769842;30;20150;-62
2022/05/01 00:18:49;;;;;;;18.90;12.32;;;7.90;99.90;;;;;;4769174;30;20144;-63
2022/05/01 00:21:15;;;;;;;17.48;12.98;;;8.10;99.90;;;;;;4769310;30;20073;-62
2022/05/01 00:23:41;;;;;;;16.10;12.73;;;;;;;;;;4768846;30;20043;-62
2022/05/01 00:26:07;;;;;;;19.23;11.98;;;7.70;99.90;;;;;;4769447;30;20134;-62
2022/05/01 00:28:37;;;;;;;17.27;11.95;;;8.20;99.90;;;;;;4769165;30;20059;-62
2022/05/01 00:31:07;;;;;;;15.82;11.93;;;8.00;99.90;;;;;;4769015;30;20493;-62
2022/05/01 00:36:27;;;;;;;16.48;11.73;;;8.40;99.90;;;;;;4769616;30;20090;-62
2022/05/01 00:38:53;;;;;;;16.35;11.65;;;;;;;;;;4752909;30;20055;-63
2022/05/01 00:41:23;;;;;;;16.80;11.88;;;;;;;;;;4769308;30;20091;-62
2022/05/01 00:44:08;;;;;;;17.48;12.43;;;8.10;99.90;;;;;;4769036;30;20059;-63
2022/05/01 00:46:45;;;;;;;17.33;12.02;;;8.10;99.90;;;;;;4753085;30;20067;-62
2022/05/01 00:49:26;;;;;;;16.02;11.93;;;7.90;99.90;;;;;;4753016;30;20263;-62
2022/05/01 00:51:57;;;;;;;19.33;11.90;;;8.10;99.90;;;;;;4768777;30;20124;-63
2022/05/01 00:54:30;;;;;;;15.85;12.05;;;8.30;99.90;;;;;;4752879;30;20067;-62
2022/05/01 00:57:04;;;;;;;17.15;12.05;;;8.00;99.90;;;;;;4752644;30;20129;-62
2022/05/01 01:02:17;;;;;;;15.10;11.70;;;;;;;;;;4799152;24;20507;-59
2022/05/01 01:04:43;;;;;;;17.75;11.82;;;;;;;;;;4782715;30;20063;-59
2022/05/01 01:07:08;;;;;;;18.15;12.05;;;8.30;99.90;;;;;;4771743;30;20147;-59
2022/05/01 01:09:35;;;;;;;15.30;12.63;;;7.90;99.90;;;;;;4775337;30;20139;-60
2022/05/01 01:14:46;;;;;;;18.13;12.90;;;;;;;;;;4768740;30;20492;-59
2022/05/01 01:17:12;;;;;;;17.08;12.45;;;;;;;;;;4768492;30;20101;-59
2022/05/01 01:19:38;;;;;;;18.45;12.63;;;8.10;99.90;;;;;;4786225;30;20073;-59
2022/05/01 01:22:06;;;;;;;19.38;12.93;;;7.80;99.90;;;;;;4786708;30;20048;-59
2022/05/01 01:24:40;;;;;;;16.40;12.05;;;7.60;99.90;;;;;;4785011;30;20059;-58
2022/05/01 01:27:07;;;;;;;16.85;12.65;;;;;;;;;;4786296;30;20047;-59
2022/05/01 01:32:19;;;;;;;20.17;12.75;;;9.60;99.90;;;;;;4786447;30;20063;-58
2022/05/01 01:34:46;;;;;;;20.02;13.30;;;7.70;99.90;;;;;;4768577;30;20055;-58
2022/05/01 01:37:16;;;;;;;18.25;13.05;;;7.90;99.90;;;;;;4772409;30;20052;-67
2022/05/01 01:39:43;;;;;;;17.05;12.77;;;7.90;99.90;;;;;;4771897;30;20102;-66
2022/05/01 01:42:11;;;;;;;16.88;13.32;;;7.90;99.90;;;;;;4771871;30;20408;-67
2022/05/01 01:44:38;;;;;;;16.65;12.82;;;8.50;99.90;;;;;;4772102;30;20059;-66
2022/05/01 01:47:05;;;;;;;18.65;13.10;;;7.90;99.90;;;;;;4772119;30;20052;-66
2022/05/01 01:49:30;;;;;;;17.77;12.88;;;7.70;99.90;;;;;;4771936;30;20051;-67
2022/05/01 01:51:56;;;;;;;21.00;13.48;;;7.50;99.90;;;;;;4771986;30;20432;-66
2022/05/01 01:54:22;;;;;;;17.73;12.98;;;;;;;;;;4771740;30;20094;-67
2022/05/01 01:56:47;;;;;;;17.73;13.38;;;7.60;99.90;;;;;;4755892;30;20404;-67
2022/05/01 01:59:13;;;;;;;19.42;14.05;;;;;;;;;;4771826;30;20056;-66
2022/05/01 02:01:43;;;;;;;19.88;14.13;;;7.70;99.90;;;;;;4755588;30;20593;-67
2022/05/01 02:04:10;;;;;;;19.73;14.50;;;7.80;99.90;;;;;;4755424;30;20079;-66
2022/05/01 02:06:36;;;;;;;20.23;13.63;;;7.70;99.90;;;;;;4771843;30;20047;-67
2022/05/01 02:09:06;;;;;;;20.02;13.82;;;7.60;99.90;;;;;;4776212;30;20116;-67
2022/05/01 02:11:32;;;;;;;17.65;13.77;;;;;;;;;;4773805;30;20066;-67
2022/05/01 02:13:58;;;;;;;19.92;14.60;;;;;;;;;;4789441;30;20047;-66
2022/05/01 02:16:25;;;;;;;19.83;14.50;;;;;;;;;;4789462;30;20051;-66
2022/05/01 02:18:52;;;;;;;20.88;14.82;;;;;;;;;;4773449;30;20087;-67
2022/05/01 02:21:35;;;;;;;19.88;14.63;;;7.50;99.90;;;;;;4789168;30;20062;-67
2022/05/01 02:24:12;;;;;;;20.70;14.98;;;7.60;99.90;;;;;;4773015;30;20059;-67
2022/05/01 02:26:39;;;;;;;21.60;14.82;;;7.80;99.90;;;;;;4789317;30;20063;-66
2022/05/01 02:29:10;;;;;;;17.38;14.30;;;7.70;99.90;;;;;;4789312;30;20124;-67
2022/05/01 02:31:38;;;;;;;23.00;15.23;;;7.60;99.90;;;;;;4789234;30;20059;-66
2022/05/01 02:34:03;;;;;;;18.92;15.15;;;7.50;99.90;;;;;;4773074;30;20067;-66
2022/05/01 02:36:29;;;;;;;19.70;15.63;;;7.30;99.90;;;;;;4788892;30;20095;-67
2022/05/01 02:38:55;;;;;;;27.75;15.85;;;7.70;99.90;;;;;;4789111;30;20058;-67
2022/05/01 02:41:20;;;;;;;18.77;14.85;;;8.00;99.90;;;;;;4789200;30;20404;-67
2022/05/01 02:43:46;;;;;;;18.33;14.60;;;7.90;99.90;;;;;;4788738;30;20380;-67
2022/05/01 02:46:14;;;;;;;19.65;14.57;;;7.70;99.90;;;;;;4787938;29;20580;-67
2022/05/01 02:48:39;;;;;;;20.45;14.73;;;7.60;99.90;;;;;;4789224;30;20407;-67
2022/05/01 02:51:05;;;;;;;16.63;14.32;;;;;;;;;;4788818;30;20059;-67
2022/05/01 02:53:33;;;;;;;22.05;15.63;;;7.60;99.90;;;;;;4789016;30;20093;-67
2022/05/01 02:56:02;;;;;;;17.52;14.85;;;7.70;99.90;;;;;;4788770;30;20073;-67
2022/05/01 02:58:29;;;;;;;19.15;15.05;;;7.40;99.90;;;;;;4787498;30;20093;-67
2022/05/01 03:00:56;;;;;;;20.20;15.05;;;7.30;99.90;;;;;;4772875;30;20116;-67
2022/05/01 03:03:22;;;;;;;19.17;14.77;;;7.70;99.90;;;;;;4788361;30;20063;-66
2022/05/01 03:05:48;;;;;;;21.40;15.15;;;7.50;99.90;;;;;;4788710;30;20473;-67
2022/05/01 03:08:14;;;;;;;24.08;15.38;;;7.80;99.90;;;;;;4788688;30;20131;-67
2022/05/01 03:10:40;;;;;;;20.10;14.90;;;7.60;99.90;;;;;;4788745;30;20492;-67
2022/05/01 03:13:06;;;;;;;21.77;15.32;;;7.80;99.90;;;;;;4788341;30;20514;-67
2022/05/01 03:15:31;;;;;;;19.17;14.80;;;7.50;99.90;;;;;;4772246;30;20047;-67
2022/05/01 03:23:26;;;;;;;17.73;14.63;;;7.80;99.90;;;;;;4772313;30;20055;-67
2022/05/01 03:25:52;;;;;;;20.45;14.60;;;;;;;;;;4788163;30;20051;-66
2022/05/01 03:28:18;;;;;;;20.40;15.18;;;8.20;99.90;;;;;;4788068;30;20142;-66
2022/05/01 03:30:44;;;;;;;22.58;15.65;;;;;;;;;;4771963;30;20213;-66
2022/05/01 03:33:10;;;;;;;18.70;14.82;;;7.60;99.90;;;;;;4788497;30;20137;-66
2022/05/01 03:35:36;;;;;;;20.17;14.45;;;7.60;99.90;;;;;;4788071;30;20062;-66
2022/05/01 03:38:06;;;;;;;18.63;14.52;;;7.70;99.90;;;;;;4788073;30;20055;-66
2022/05/01 03:40:35;;;;;;;19.83;15.30;;;7.40;99.90;;;;;;4788002;30;20055;-67
2022/05/01 03:43:04;;;;;;;19.05;14.98;;;7.90;99.90;;;;;;4787718;30;20060;-67
2022/05/01 03:45:31;;;;;;;20.33;15.77;;;;;;;;;;4772104;30;20491;-67
2022/05/01 03:47:57;;;;;;;20.15;15.80;;;;;;;;;;4787973;30;20051;-67
2022/05/01 03:50:22;;;;;;;19.60;15.43;;;7.40;99.90;;;;;;4787897;30;20055;-67
2022/05/01 03:52:48;;;;;;;20.05;15.75;;;;;;;;;;4787702;30;20523;-67
2022/05/01 03:55:14;;;;;;;20.52;15.13;;;7.30;99.90;;;;;;4787950;30;20112;-59
2022/05/01 03:57:40;;;;;;;23.73;16.30;;;7.40;99.90;;;;;;4787488;29;20055;-59
2022/05/01 04:00:10;;;;;;;20.75;15.57;;;7.50;99.90;;;;;;4787608;30;20056;-59
2022/05/01 04:02:42;;;;;;;20.58;16.80;;;7.60;99.90;;;;;;4787799;30;20078;-59
2022/05/01 04:05:09;;;;;;;23.55;16.70;;;7.20;99.90;;;;;;4787712;30;20053;-59
2022/05/01 04:07:35;;;;;;;21.73;15.88;;;7.00;99.90;;;;;;4787555;30;20492;-59
2022/05/01 04:10:01;;;;;;;23.58;15.98;;;7.40;99.90;;;;;;4787825;30;20055;-59
2022/05/01 04:12:26;;;;;;;21.08;16.05;;;7.30;99.90;;;;;;4787507;30;20055;-59
2022/05/01 04:14:52;;;;;;;22.95;16.77;;;;;;;;;;4787715;30;20047;-58
2022/05/01 04:17:18;;;;;;;23.90;17.00;;;;;;;;;;4787201;30;20054;-58
2022/05/01 04:19:44;;;;;;;31.33;18.00;;;7.20;99.90;;;;;;4786984;30;20500;-58
2022/05/01 04:22:10;;;;;;;21.63;16.70;;;;;;;;;;4787114;30;20057;-59
2022/05/01 04:24:36;;;;;;;22.35;16.70;;;;;;;;;;4786981;30;20051;-66
2022/05/01 04:27:04;;;;;;;21.27;17.17;;;7.40;99.90;;;;;;4787461;30;20059;-66
2022/05/01 04:29:40;;;;;;;22.52;16.90;;;;;;;;;;4787313;30;20135;-66
2022/05/01 04:32:06;;;;;;;26.05;18.02;;;7.60;99.90;;;;;;4786953;30;20055;-67
2022/05/01 04:34:35;;;;;;;23.30;17.45;;;7.30;99.90;;;;;;4770967;30;20111;-66
2022/05/01 04:37:02;;;;;;;22.83;17.02;;;;;;;;;;4786952;30;20056;-67
2022/05/01 04:39:28;;;;;;;24.75;17.58;;;;;;;;;;4786973;30;20090;-67
2022/05/01 04:41:54;;;;;;;21.98;17.17;;;;;;;;;;4786994;30;20086;-66
2022/05/01 04:44:20;;;;;;;23.38;18.73;;;;;;;;;;4786891;30;20051;-67
2022/05/01 04:46:49;;;;;;;26.70;18.80;;;7.60;99.90;;;;;;4787063;30;20055;-67
2022/05/01 04:49:18;;;;;;;24.70;18.15;;;7.50;99.90;;;;;;4786606;30;20097;-67
2022/05/01 04:51:44;;;;;;;25.38;17.77;;;7.30;99.90;;;;;;4786510;30;20530;-67
2022/05/01 04:54:10;;;;;;;25.30;18.75;;;7.30;99.90;;;;;;4787086;30;20062;-67
2022/05/01 04:59:20;;;;;;;23.88;18.50;;;7.50;99.90;;;;;;4786607;30;20048;-66
2022/05/01 05:01:47;;;;;;;26.58;19.00;;;;;;;;;;4786542;30;20062;-67
2022/05/01 05:04:13;;;;;;;28.20;19.45;;;8.00;99.90;;;;;;4785501;30;20055;-67
2022/05/01 05:06:39;;;;;;;26.60;18.85;;;;;;;;;;4786671;30;20051;-67
2022/05/01 05:11:48;;;;;;;24.98;19.67;;;7.80;99.90;;;;;;4786679;30;20469;-67
2022/05/01 05:14:14;;;;;;;26.15;19.17;;;7.60;99.90;;;;;;4786434;30;20134;-67
2022/05/01 05:16:41;;;;;;;25.25;18.83;;;7.60;99.90;;;;;;4786634;30;20536;-58
2022/05/01 05:19:07;;;;;;;24.00;19.00;;;;;;;;;;4786314;30;20150;-58
2022/05/01 05:21:34;;;;;;;25.25;18.73;;;;;;;;;;4786622;30;20389;-58
2022/05/01 05:23:59;;;;;;;25.05;18.85;;;7.30;99.90;;;;;;4786420;30;20408;-58
2022/05/01 05:26:25;;;;;;;27.85;19.25;;;;;;;;;;4786306;30;20099;-58
2022/05/01 05:28:51;;;;;;;26.33;19.05;;;7.80;99.90;;;;;;4786122;30;20444;-58
2022/05/01 05:31:16;;;;;;;28.05;19.00;;;7.70;99.90;;;;;;4770166;30;20188;-58
2022/05/01 05:33:42;;;;;;;24.63;18.42;;;;;;;;;;4786289;30;20154;-58
2022/05/01 05:36:08;;;;;;;27.95;20.20;;;7.90;99.90;;;;;;4770055;30;20154;-59
2022/05/01 05:38:34;;;;;;;23.88;18.67;;;8.20;99.90;;;;;;4786216;30;20225;-58
2022/05/01 05:41:00;;;;;;;24.80;19.42;;;7.90;99.90;;;;;;4785207;30;20047;-58
2022/05/01 05:43:26;;;;;;;24.05;18.40;;;7.90;99.90;;;;;;4786216;30;20104;-58
2022/05/01 05:45:52;;;;;;;24.40;19.20;;;;;;;;;;4785862;30;20047;-58
2022/05/01 05:48:18;;;;;;;25.92;18.73;;;;;;;;;;4786185;30;20275;-58
2022/05/01 05:50:44;;;;;;;25.95;17.63;;;;;;;;;;4786435;30;20059;-59
2022/05/01 05:53:10;;;;;;;27.67;17.85;;;;;;;;;;4785950;30;20515;-58
2022/05/01 05:55:36;;;;;;;25.08;17.23;;;;;;;;;;4786086;30;20055;-58
2022/05/01 05:58:03;;;;;;;22.60;16.92;;;;;;;;;;4785961;30;20540;-59
2022/05/01 06:00:29;;;;;;;25.70;17.23;;;;;;;;;;4785865;30;20516;-59
2022/05/01 06:02:54;;;;;;;25.52;16.35;;;7.80;99.90;;;;;;4785622;30;20523;-59
2022/05/01 06:05:20;;;;;;;20.83;16.35;;;8.20;99.90;;;;;;4785906;30;20048;-59
2022/05/01 06:07:46;;;;;;;21.50;16.15;;;8.40;99.90;;;;;;4785797;30;20048;-59
2022/05/01 06:10:12;;;;;;;21.92;16.08;;;;;;;;;;4785980;30;20144;-59
2022/05/01 06:12:42;;;;;;;19.85;16.30;;;8.30;99.90;;;;;;4785754;30;20061;-59
2022/05/01 06:15:09;;;;;;;21.35;15.57;;;10.00;99.90;;;;;;4785375;30;20051;-59
2022/05/01 06:17:37;;;;;;;22.35;15.80;;;;;;;;;;4785942;30;20053;-59
2022/05/01 06:20:04;;;;;;;23.17;15.23;;;8.20;99.90;;;;;;4786107;29;20071;-59
2022/05/01 06:22:30;;;;;;;18.73;15.05;;;9.10;99.90;;;;;;4788895;30;20063;-59
2022/05/01 06:24:56;;;;;;;19.05;15.63;;;;;;;;;;4789118;30;20051;-59
2022/05/01 06:27:22;;;;;;;20.83;15.70;;;8.80;99.90;;;;;;4789033;30;20043;-59
2022/05/01 06:29:48;;;;;;;22.27;15.65;;;;;;;;;;4788867;30;20143;-59
2022/05/01 06:32:19;;;;;;;22.55;15.93;;;8.40;99.90;;;;;;4789108;30;20063;-59
2022/05/01 06:34:46;;;;;;;20.60;15.43;;;8.50;99.90;;;;;;4772945;30;20370;-59
2022/05/01 06:37:13;;;;;;;24.40;15.48;;;8.70;99.90;;;;;;4772816;30;20093;-59
2022/05/01 06:39:39;;;;;;;19.17;14.65;;;8.50;99.90;;;;;;4789088;30;20063;-59
2022/05/01 06:42:06;;;;;;;20.30;15.48;;;;;;;;;;4788932;30;20393;-59
2022/05/01 06:44:31;;;;;;;20.95;15.43;;;8.70;99.90;;;;;;4788785;30;20115;-59
2022/05/01 06:46:57;;;;;;;21.80;14.68;;;;;;;;;;4788754;30;20051;-59
2022/05/01 06:49:23;;;;;;;19.38;14.48;;;9.00;99.90;;;;;;4788891;30;20420;-59
2022/05/01 06:51:49;;;;;;;22.70;15.38;;;8.60;99.90;;;;;;4789101;30;20055;-59
2022/05/01 06:54:15;;;;;;;21.88;15.10;;;;;;;;;;4788738;30;20051;-59
2022/05/01 06:56:41;;;;;;;20.40;14.35;;;8.90;99.90;;;;;;4788496;30;20066;-59
2022/05/01 06:59:07;;;;;;;18.48;14.55;;;8.80;99.90;;;;;;4788719;30;20500;-59
2022/05/01 07:01:33;;;;;;;20.77;14.50;;;;;;;;;;4772621;30;20134;-59
2022/05/01 07:03:58;;;;;;;17.77;14.07;;;9.00;99.90;;;;;;4788391;30;20197;-59
2022/05/01 07:06:25;;;;;;;17.25;13.63;;;;;;;;;;4788449;30;20122;-59
2022/05/01 07:08:51;;;;;;;21.13;14.30;;;;;;;;;;4788439;30;20067;-60
2022/05/01 07:11:17;;;;;;;18.33;13.63;;;;;;;;;;4788292;30;20499;-59
2022/05/01 07:13:43;;;;;;;20.33;13.57;;;9.20;99.90;;;;;;4788769;30;20059;-59
2022/05/01 07:16:09;;;;;;;22.23;13.55;;;9.00;99.90;;;;;;4788477;30;20142;-59
2022/05/01 07:18:35;;;;;;;19.98;14.43;;;9.20;99.90;;;;;;4788514;30;20134;-59
2022/05/01 07:21:01;;;;;;;22.15;15.52;;;9.30;99.90;;;;;;4780720;29;20056;-59
2022/05/01 07:23:28;;;;;;;18.95;13.35;;;9.30;99.90;;;;;;4781452;30;20058;-60
2022/05/01 07:25:54;;;;;;;20.15;14.10;;;9.40;99.90;;;;;;4771035;30;20055;-60
2022/05/01 07:28:19;;;;;;;17.27;13.68;;;9.70;99.90;;;;;;4770940;30;20085;-60
2022/05/01 07:30:45;;;;;;;18.08;13.80;;;;;;;;;;4786882;30;20047;-60
2022/05/01 07:33:11;;;;;;;16.27;13.32;;;;;;;;;;4786892;29;20131;-59
2022/05/01 07:35:37;;;;;;;16.40;12.70;;;9.90;99.90;;;;;;4787171;30;20047;-59
2022/05/01 07:38:03;;;;;;;15.88;12.85;;;10.10;99.90;;;;;;4786820;29;20424;-59
2022/05/01 07:40:29;;;;;;;16.15;12.93;;;;;;;;;;4787474;30;20488;-59
2022/05/01 07:42:55;;;;;;;18.50;13.55;;;9.90;99.90;;;;;;4787205;30;20055;-59
2022/05/01 07:45:21;;;;;;;21.10;13.73;;;;;;;;;;4787527;30;20640;-60
2022/05/01 07:47:46;;;;;;;16.98;12.52;;;10.50;99.90;;;;;;4786955;30;20085;-59
2022/05/01 07:50:12;;;;;;;16.30;13.00;;;10.50;99.90;;;;;;4770977;30;20153;-59
2022/05/01 07:52:38;;;;;;;17.80;13.65;;;10.40;99.90;;;;;;4786828;30;20134;-59
2022/05/01 07:55:05;;;;;;;16.38;12.73;;;10.40;99.90;;;;;;4794166;29;20053;-60
2022/05/01 07:57:30;;;;;;;16.85;13.35;;;10.40;99.90;;;;;;4804464;29;20120;-59
2022/05/01 07:59:56;;;;;;;17.20;13.77;;;;;;;;;;4788850;29;20055;-60
2022/05/01 08:02:22;;;;;;;16.67;13.32;;;11.00;99.90;;;;;;4804389;29;20092;-60
2022/05/01 08:04:48;;;;;;;17.35;13.70;;;;;;;;;;4788521;29;20058;-59
2022/05/01 08:07:15;;;;;;;16.48;13.10;;;10.70;99.90;;;;;;4779369;29;20090;-60
2022/05/01 08:09:41;;;;;;;17.75;13.90;;;10.80;99.90;;;;;;4786800;29;20134;-60
2022/05/01 08:12:07;;;;;;;16.63;12.70;;;;;;;;;;4787273;29;20058;-60
2022/05/01 08:14:33;;;;;;;15.77;12.15;;;;;;;;;;4786614;29;20104;-62
2022/05/01 08:16:59;;;;;;;14.90;11.57;;;;;;;;;;4786687;29;20167;-60
2022/05/01 08:22:09;;;;;;;13.25;10.90;;;;;;;;;;4786239;29;20063;-60
2022/05/01 08:24:35;;;;;;;16.45;11.60;;;11.30;99.90;;;;;;4786229;29;20055;-61
2022/05/01 08:27:05;;;;;;;15.07;11.48;;;;;;;;;;4786553;29;20052;-61
2022/05/01 08:29:35;;;;;;;19.95;10.20;;;11.60;99.90;;;;;;4785894;29;20087;-60
2022/05/01 08:32:01;;;;;;;11.73;8.73;;;11.80;99.90;;;;;;4786507;30;20043;-60
2022/05/01 08:34:27;;;;;;;12.23;9.73;;;11.50;99.90;;;;;;4770330;30;20056;-60
2022/05/01 08:36:53;;;;;;;11.85;8.88;;;;;;;;;;4785986;29;20084;-60
2022/05/01 08:39:19;;;;;;;11.90;8.80;;;;;;;;;;4786080;29;20138;-60
2022/05/01 08:41:45;;;;;;;13.70;9.40;;;12.10;99.90;;;;;;4786623;30;20523;-60
2022/05/01 08:44:14;;;;;;;10.48;9.38;;;12.20;99.90;;;;;;4785599;29;20118;-61
2022/05/01 08:46:56;;;;;;;10.93;9.02;;;12.00;99.90;;;;;;4786320;29;20077;-60
2022/05/01 08:49:22;;;;;;;12.52;9.38;;;12.30;99.90;;;;;;4785475;29;20091;-60
2022/05/01 08:51:50;;;;;;;15.63;9.18;;;12.50;99.90;;;;;;4786237;30;20665;-60
2022/05/01 08:54:17;;;;;;;12.43;8.90;;;13.10;99.90;;;;;;4785906;29;20130;-62
2022/05/01 08:56:43;;;;;;;12.20;8.55;;;13.00;99.90;;;;;;4786388;30;20581;-60
2022/05/01 08:59:12;;;;;;;10.75;7.50;;;13.40;99.90;;;;;;4784577;29;20142;-60
2022/05/01 09:01:40;;;;;;;10.88;7.13;;;13.70;99.90;;;;;;4785603;29;20124;-60
2022/05/01 09:04:06;;;;;;;10.23;7.65;;;13.90;99.90;;;;;;4801800;29;20058;-60
2022/05/01 09:06:43;;;;;;;12.52;8.05;;;14.40;99.90;;;;;;4803569;29;20054;-60
2022/05/01 09:09:17;;;;;;;11.63;7.97;;;14.20;98.30;;;;;;4803987;29;20059;-60
2022/05/01 09:14:28;;;;;;;7.57;5.78;;;14.20;95.20;;;;;;4803763;29;20115;-60
2022/05/01 09:17:09;;;;;;;10.50;6.65;;;14.10;93.60;;;;;;4803790;29;20063;-60
2022/05/01 09:19:36;;;;;;;10.63;6.45;;;;;;;;;;4803382;29;20055;-60
2022/05/01 09:22:02;;;;;;;10.65;6.70;;;14.00;99.40;;;;;;4803864;29;20051;-60
2022/05/01 09:24:29;;;;;;;11.27;6.70;;;14.00;98.20;;;;;;4803284;29;20471;-60
2022/05/01 09:26:55;;;;;;;8.63;6.15;;;13.90;99.30;;;;;;4803203;29;20054;-60
2022/05/01 09:29:26;;;;;;;11.57;6.50;;;14.00;96.40;;;;;;4803535;29;20059;-60
2022/05/01 09:31:55;;;;;;;9.15;7.00;;;14.30;98.60;;;;;;4787796;29;20185;-60
2022/05/01 09:34:26;;;;;;;8.63;7.10;;;14.20;91.00;;;;;;4803229;29;20055;-60
2022/05/01 09:36:52;;;;;;;8.52;6.60;;;14.30;91.40;;;;;;4803118;29;20058;-60
2022/05/01 09:39:19;;;;;;;11.25;7.50;;;14.80;97.50;;;;;;4803065;29;20062;-60
2022/05/01 09:41:46;;;;;;;12.85;6.85;;;14.50;97.40;;;;;;4803561;29;20400;-60
2022/05/01 09:44:18;;;;;;;11.23;7.03;;;14.60;90.20;;;;;;4803308;29;20570;-60
2022/05/01 09:46:44;;;;;;;9.35;6.85;;;15.20;97.50;;;;;;4803508;29;20508;-60
2022/05/01 09:49:13;;;;;;;9.27;6.90;;;15.20;90.90;;;;;;4803571;29;20527;-60
2022/05/01 09:51:43;;;;;;;8.25;6.85;;;15.10;86.40;;;;;;4803071;29;20050;-59
2022/05/01 09:54:16;;;;;;;9.70;7.13;;;14.70;95.40;;;;;;4803587;29;20062;-60
2022/05/01 09:56:46;;;;;;;9.35;6.75;;;15.00;90.30;;;;;;4806779;29;20062;-60
2022/05/01 09:59:13;;;;;;;10.20;6.57;;;15.50;86.60;;;;;;4807014;29;20127;-60
2022/05/01 10:01:39;;;;;;;9.35;7.00;;;;;;;;;;4806646;29;20147;-60
2022/05/01 10:04:04;;;;;;;11.50;7.40;;;16.10;94.40;;;;;;4806834;29;20063;-60
2022/05/01 10:06:32;;;;;;;11.00;6.72;;;15.90;82.50;;;;;;4806197;29;20046;-60
2022/05/01 10:08:58;;;;;;;10.93;7.53;;;15.70;85.90;;;;;;4784809;29;20054;-60
2022/05/01 10:11:26;;;;;;;11.13;7.20;;;15.80;92.70;;;;;;4806685;29;20054;-59
2022/05/01 10:13:52;;;;;;;10.55;7.28;;;15.80;88.60;;;;;;4798723;29;20171;-59
2022/05/01 10:16:18;;;;;;;10.38;7.80;;;16.00;92.80;;;;;;4792231;29;20583;-67
2022/05/01 10:18:45;;;;;;;14.98;8.07;;;15.80;80.70;;;;;;4806285;29;20547;-67
2022/05/01 10:21:12;;;;;;;11.45;8.02;;;15.90;79.20;;;;;;4790054;29;20454;-67
2022/05/01 10:23:38;;;;;;;9.35;6.97;;;15.80;82.20;;;;;;4800578;29;20043;-67
2022/05/01 10:26:28;;;;;;;8.40;6.47;;;15.90;91.80;;;;;;4798580;29;20126;-68
2022/05/01 10:29:06;;;;;;;9.32;7.07;;;15.70;91.70;;;;;;4790594;29;20596;-67
2022/05/01 10:35:07;;;;;;;9.93;6.40;;;15.70;91.00;;;;;;4806187;29;20411;-68
2022/05/01 10:37:55;;;;;;;9.10;6.30;;;15.80;74.50;;;;;;4805660;29;20062;-66
2022/05/01 10:40:21;;;;;;;7.13;5.82;;;15.80;90.50;;;;;;4806327;29;20059;-60
2022/05/01 10:42:49;;;;;;;10.52;6.85;;;;;;;;;;4806382;29;20051;-60
2022/05/01 10:45:21;;;;;;;11.00;6.80;;;16.00;89.10;;;;;;4806313;29;20061;-60
2022/05/01 10:47:48;;;;;;;9.23;6.78;;;15.80;71.70;;;;;;4789789;29;20120;-59
2022/05/01 10:50:20;;;;;;;8.43;5.80;;;15.50;70.00;;;;;;4805466;29;20085;-59
2022/05/01 10:53:04;;;;;;;9.00;5.55;;;15.50;68.40;;;;;;4790064;29;20131;-59
2022/05/01 10:55:48;;;;;;;8.35;5.95;;;15.60;86.00;;;;;;4805841;29;20073;-60
2022/05/01 10:58:26;;;;;;;9.23;6.40;;;15.70;70.10;;;;;;4805993;29;20082;-60
2022/05/01 11:00:54;;;;;;;7.93;5.55;;;15.90;68.80;;;;;;4806340;29;20408;-60
2022/05/01 11:03:28;;;;;;;9.50;5.63;;;16.00;67.60;;;;;;4788967;29;20100;-60
2022/05/01 11:06:03;;;;;;;8.88;5.95;;;16.40;84.20;;;;;;4805590;29;20062;-60
2022/05/01 11:08:33;;;;;;;6.90;5.43;;;16.30;73.60;;;;;;4804900;29;20055;-59
2022/05/01 11:11:07;;;;;;;10.80;5.00;;;16.20;79.70;;;;;;4805576;29;20061;-59
2022/05/01 11:13:38;;;;;;;7.90;4.80;;;16.10;62.60;;;;;;4804086;29;20043;-59
2022/05/01 11:16:07;;;;;;;7.03;4.50;;;15.60;61.90;;;;;;4787420;30;20100;-59
2022/05/01 11:18:53;;;;;;;9.13;5.47;;;15.90;71.10;;;;;;4787741;30;20397;-59
2022/05/01 11:21:24;;;;;;;8.30;5.28;;;16.10;61.50;;;;;;4787626;30;20134;-59
2022/05/01 11:24:13;;;;;;;8.27;5.55;;;16.30;61.70;;;;;;4788272;30;20454;-59
2022/05/01 11:27:11;;;;;;;8.65;5.18;;;16.20;60.50;;;;;;4786916;30;20059;-59
2022/05/01 11:29:37;;;;;;;9.55;4.78;;;16.30;78.20;;;;;;4787968;30;20141;-59
2022/05/01 11:32:19;;;;;;;7.75;4.32;;;16.50;63.30;;;;;;4787978;30;20058;-60
2022/05/01 11:34:53;;;;;;;11.32;5.00;;;16.70;78.00;;;;;;4788132;30;20090;-59
2022/05/01 11:37:20;;;;;;;8.07;4.68;;;17.00;60.70;;;;;;4788034;30;20063;-59
2022/05/01 11:39:46;;;;;;;7.43;4.78;;;;;;;;;;4788084;30;20055;-59
2022/05/01 11:42:29;;;;;;;6.45;4.63;;;17.20;59.20;;;;;;4787307;30;20137;-59
2022/05/01 11:45:00;;;;;;;10.07;4.45;;;16.70;66.00;;;;;;4788025;30;20056;-59
2022/05/01 11:47:33;;;;;;;5.88;4.50;;;17.10;57.60;;;;;;4787629;30;20493;-59
2022/05/01 11:49:59;;;;;;;6.43;4.18;;;;;;;;;;4787895;30;20072;-60
2022/05/01 11:52:25;;;;;;;5.65;4.40;;;17.50;76.80;;;;;;4787673;30;20047;-59
2022/05/01 11:54:56;;;;;;;7.35;4.10;;;17.60;75.40;;;;;;4787528;30;20715;-59
2022/05/01 12:03:04;;;;;;;7.00;3.70;;;17.00;55.10;;;;;;4787336;30;20070;-59
2022/05/01 12:05:31;;;;;;;4.78;3.40;;;16.70;74.80;;;;;;4787939;30;20058;-60
2022/05/01 12:07:59;;;;;;;5.80;3.38;;;17.60;72.60;;;;;;4787558;30;20470;-60
2022/05/01 12:10:26;;;;;;;9.05;3.45;;;17.60;70.90;;;;;;4787521;30;20081;-59
2022/05/01 12:12:52;;;;;;;5.93;3.45;;;17.50;70.80;;;;;;4771284;30;20059;-59
2022/05/01 12:15:18;;;;;;;4.30;2.90;;;;;;;;;;4771472;30;20120;-59
2022/05/01 12:17:44;;;;;;;4.88;3.10;;;17.00;70.00;;;;;;4786590;29;20059;-60
2022/05/01 12:20:11;;;;;;;7.95;3.30;;;17.50;69.60;;;;;;4786002;30;20059;-60
2022/05/01 12:22:39;;;;;;;6.93;3.25;;;17.60;70.10;;;;;;4786340;30;20470;-60
2022/05/01 12:25:11;;;;;;;4.78;3.35;;;17.50;51.90;;;;;;4787329;30;20130;-59
2022/05/01 12:27:41;;;;;;;5.80;3.50;;;18.00;71.20;;;;;;4787066;30;20051;-60
2022/05/01 12:30:09;;;;;;;5.93;3.28;;;18.30;58.00;;;;;;4770878;30;20059;-59
2022/05/01 12:32:36;;;;;;;6.70;3.33;;;18.20;54.10;;;;;;4786761;30;20051;-59
2022/05/01 12:35:04;;;;;;;5.28;3.70;;;18.30;51.10;;;;;;4786938;30;20054;-59
2022/05/01 12:37:35;;;;;;;6.47;3.50;;;18.40;51.00;;;;;;4787247;30;20134;-59
2022/05/01 12:40:12;;;;;;;5.20;3.47;;;18.60;62.60;;;;;;4771021;30;20580;-59
2022/05/01 12:45:45;;;;;;;5.38;3.20;;;18.10;75.40;;;;;;4786851;30;20055;-60
2022/05/01 12:48:13;;;;;;;4.85;3.20;;;18.10;50.70;;;;;;4771655;30;20051;-59
2022/05/01 12:50:40;;;;;;;6.72;3.30;;;18.10;50.50;;;;;;4786857;30;20579;-60
2022/05/01 12:53:26;;;;;;;7.05;3.60;;;18.20;50.80;;;;;;4770496;30;20102;-59
2022/05/01 12:55:53;;;;;;;5.55;3.53;;;18.00;75.50;;;;;;4786862;30;20147;-59
2022/05/01 12:58:35;;;;;;;7.70;3.50;;;17.80;55.40;;;;;;4786494;30;20055;-59
2022/05/01 13:01:04;;;;;;;6.80;3.60;;;17.80;52.60;;;;;;4786601;30;20097;-59
2022/05/01 13:03:38;;;;;;;5.28;3.30;;;17.70;51.50;;;;;;4785269;30;20127;-60
2022/05/01 13:06:11;;;;;;;5.80;3.50;;;17.60;51.50;;;;;;4786447;30;20504;-60
2022/05/01 13:08:38;;;;;;;6.43;3.50;;;17.50;77.20;;;;;;4786668;30;20457;-60
2022/05/01 13:11:11;;;;;;;5.47;3.60;;;17.30;70.40;;;;;;4786404;30;20057;-60
2022/05/01 13:13:58;;;;;;;8.50;3.70;;;18.40;79.00;;;;;;4770283;30;20058;-60
2022/05/01 13:16:30;;;;;;;7.20;3.30;;;17.30;51.70;;;;;;4786836;30;20057;-60
2022/05/01 13:18:57;;;;;;;5.22;3.35;;;17.10;52.00;;;;;;4786292;30;20047;-59
2022/05/01 13:21:25;;;;;;;5.03;3.30;;;16.30;52.80;;;;;;4770185;30;20134;-60
2022/05/01 13:23:54;;;;;;;7.63;3.45;;;16.90;52.40;;;;;;4786249;30;20047;-60
2022/05/01 13:26:20;;;;;;;5.40;3.50;;;;;;;;;;4770557;30;20054;-60
2022/05/01 13:28:48;;;;;;;5.25;3.55;;;;;;;;;;4786773;30;20052;-60
2022/05/01 13:31:15;;;;;;;7.65;3.45;;;16.70;52.10;;;;;;4786132;30;20126;-60
2022/05/01 13:33:40;;;;;;;5.13;3.53;;;16.70;70.30;;;;;;4770521;30;20059;-60
2022/05/01 13:36:07;;;;;;;3.83;3.35;;;17.50;67.50;;;;;;4786198;30;20493;-59
2022/05/01 13:38:33;;;;;;;5.32;3.20;;;17.10;56.40;;;;;;4786311;30;20063;-60
2022/05/01 13:46:28;;;;;;;5.80;3.70;;;;;;;;;;4786248;30;20056;-59
2022/05/01 13:48:57;;;;;;;8.32;3.88;;;16.40;52.80;;;;;;4786070;30;20142;-59
2022/05/01 13:51:24;;;;;;;6.40;3.33;;;16.10;54.60;;;;;;4786191;30;20094;-60
2022/05/01 13:53:50;;;;;;;5.03;3.58;;;16.30;53.80;;;;;;4786168;30;20059;-60